Air Resources Laboratory banner image
Air Resources Laboratory web site National Oceanic and Atmospheric Administration (NOAA)

ca metar


KCQT 132347Z AUTO VRB03KT 10SM CLR 29/12 A2988 RMK AO2 SLP115 T02890117 10322
 20289 58009=
KMER 132345Z 31010KT 10SM CLR 37/04 A2991=
KMHR 132345Z E29003KT 10SM SKC 35/01 A2989=
KPAO 132347Z 34015KT 10SM SKC 24/16 A2998=
KRHV 132347Z 33010KT 10SM SKC 29/09 A2998=
KSQL 132347Z 28014KT 10SM CLR 25/11 A3000=
KTRK 132345Z 26009G16KT 10SM CLR 28/M04 A3024=